Nearby METAR Reports

 

KSJC - San Jose, California, USA
Distance from station: NE 9mi, 14km
Updated: Tue, 15-Oct-2019 5:53pm CDT
Few Clouds
Few Clouds
 Wind from N
Wind: N 6 mph , 9 km/h
Temperature: 72°F , 22°C
Dew Point: 54°F , 12°C
Humidity: 53%
Barometer: 30.02 inHg , 1016.6 hPa
Clouds: Few Clouds
Visibility: 10 miles , 16 km
Cloud details: Few Clouds 2000 ft
Few Clouds 9000 ft
2019/10/15 22:53 KSJC 152253Z 36005KT 10SM FEW020 FEW090 22/12 A3002 RMK AO2 SLP165 T02170122
KNUQ - Moffett Nas/Mtn, California, USA
Distance from station: N 9mi, 14km
Updated: Tue, 15-Oct-2019 5:56pm CDT

 
Barometer: 30.03 inHg , 1016.9 hPa
2019/10/15 22:56 KNUQ 152256Z A3003 RMK AO2 SLP173 PWINO $
 
KPAO - Palo Alto, California, USA
Distance from station: NNW 14mi, 23km
Updated: Tue, 15-Oct-2019 5:47pm CDT
Clear
Clear
 Wind from N
Wind: N 8 mph , 13 km/h
Temperature: 63°F , 17°C
Dew Point: 54°F , 12°C
Humidity: 73%
Barometer: 30.03 inHg , 1016.9 hPa
Clouds: Clear
Visibility: 10 miles , 16 km
2019/10/15 22:47 KPAO 152247Z 01007KT 10SM SKC 17/12 A3003
KRHV - San Jose/Reid, California, USA
Distance from station: ENE 12mi, 19km
Updated: Tue, 15-Oct-2019 5:47pm CDT
Clear
Clear
 Wind from calm
Wind: Calm
Temperature: 70°F , 21°C
Dew Point: 48°F , 9°C
Humidity: 46%
Barometer: 30.03 inHg , 1016.9 hPa
Clouds: Clear
Visibility: 10 miles , 16 km
2019/10/15 22:47 KRHV 152247Z 00000KT 10SM SKC 21/09 A3003
 
KOAK - Oakland, California, USA
Distance from station: NNW 31mi, 50km
Updated: Tue, 15-Oct-2019 5:53pm CDT
Few Clouds
Few Clouds
 Wind from W
Wind: W 6 mph , 9 km/h
Temperature: 64°F , 18°C
Dew Point: 48°F , 9°C
Humidity: 56%
Barometer: 30.03 inHg , 1016.9 hPa
Clouds: Few Clouds
Visibility: 10 miles , 16 km
Cloud details: Few Clouds 1100 ft
Few Clouds 20000 ft
2019/10/15 22:53 KOAK 152253Z 27005KT 10SM FEW011 FEW200 18/09 A3003 RMK AO2 SLP170 T01830089
KSQL - San Carlos Airpo, California, USA
Distance from station: NW 21mi, 34km
Updated: Tue, 15-Oct-2019 5:50pm CDT
Haze, Clear
Haze, Clear
 Wind from NNE
Wind: NNE 7 mph , 11 km/h
Temperature: 64°F , 18°C
Dew Point: 54°F , 12°C
Humidity: 68%
Barometer: 30.04 inHg , 1017.3 hPa
Summary: Haze
Clouds: Clear
Visibility: 8 miles , 13 km
2019/10/15 22:50 KSQL 152250Z 02006KT 8SM HZ SKC 18/12 A3004
 
KSFO - San Francisco, California, USA
Distance from station: NW 30mi, 49km
Updated: Tue, 15-Oct-2019 5:56pm CDT
Few Clouds
Few Clouds
 Wind from NE
Wind: NE 5 mph , 7 km/h
Temperature: 64°F , 18°C
Dew Point: 48°F , 9°C
Humidity: 56%
Barometer: 30.02 inHg , 1016.6 hPa
Clouds: Few Clouds
Visibility: 10 miles , 16 km
Cloud details: Few Clouds 20000 ft
2019/10/15 22:56 KSFO 152256Z 05004KT 10SM FEW200 18/09 A3002 RMK AO2 SLP167 T01780094
KE16 - San Martin, California, USA
Distance from station: ESE 27mi, 43km
Updated: Tue, 15-Oct-2019 6:15pm CDT
Clear
Clear
 Wind from NW
Wind: NW 14 mph , 22 km/h, Gust: 21 mph , 33 km/h
Temperature: 73°F , 23°C
Dew Point: 48°F , 9°C
Humidity: 41%
Barometer: 30.02 inHg , 1016.6 hPa
Clouds: Clear
Visibility: 10 miles , 16 km
2019/10/15 23:15 KE16 152315Z AUTO 31012G18KT 10SM CLR 23/09 A3002 RMK AO2
 
KWVI - Watsonville, California, USA
Distance from station: SSE 27mi, 44km
Updated: Tue, 15-Oct-2019 5:53pm CDT
Clear
Clear
 Wind from SSW
Wind: SSW 5 mph , 7 km/h
Temperature: 70°F , 21°C
Dew Point: 52°F , 11°C
Humidity: 53%
Barometer: 30.02 inHg , 1016.6 hPa
Clouds: Clear
Visibility: 10 miles , 16 km
2019/10/15 22:53 KWVI 152253Z AUTO 20004KT 10SM CLR 21/11 A3002 RMK AO2 SLP164 T02060106
KHAF - Half Moon Bay, California, USA
Distance from station: WNW 31mi, 50km
Updated: Tue, 15-Oct-2019 6:20pm CDT
Clear
Clear
 Wind from NW
Wind: NW 15 mph , 24 km/h
Temperature: 57°F , 14°C
Dew Point: 50°F , 10°C
Humidity: 77%
Barometer: 30.04 inHg , 1017.3 hPa
Clouds: Clear
Visibility: 9 miles , 14 km
2019/10/15 23:20 KHAF 152320Z AUTO 31013KT 9SM CLR 14/10 A3004 RMK AO2
 
KHWD - Hayward, California, USA
Distance from station: N 28mi, 44km
Updated: Tue, 15-Oct-2019 5:54pm CDT
Clear
Clear
 Wind from WSW
Wind: WSW 5 mph , 7 km/h
Temperature: 64°F , 18°C
Dew Point: 50°F , 10°C
Humidity: 60%
Barometer: 30.03 inHg , 1016.9 hPa
Clouds: Clear
Visibility: 10 miles , 16 km
2019/10/15 22:54 KHWD 152254Z 25004KT 10SM CLR 18/10 A3003 RMK AO2 SLP178 T01780100
KLVK - Livermore, California, USA
Distance from station: NNE 31mi, 51km
Updated: Tue, 15-Oct-2019 5:53pm CDT
Clear
Clear
 
Temperature: 81°F , 27°C
Dew Point: 36°F , 2°C
Humidity: 20%
Barometer: 30.00 inHg , 1015.9 hPa
Clouds: Clear
Visibility: 10 miles , 16 km
2019/10/15 22:53 KLVK 152253Z 10SM CLR 27/02 A3000 RMK AO2 SLP156 T02670017